sensor_id;sensor_type;location;lat;lon;timestamp;P1;durP1;ratioP1;P2;durP2;ratioP2
75454;SDS011;64035;48.358;2.122;2022-12-18T00:00:59;17.88;;;6.20;;
75454;SDS011;64035;48.358;2.122;2022-12-18T00:02:00;20.20;;;6.53;;
75454;SDS011;64035;48.358;2.122;2022-12-18T00:03:01;18.60;;;6.20;;
75454;SDS011;64035;48.358;2.122;2022-12-18T00:04:03;24.45;;;7.78;;
75454;SDS011;64035;48.358;2.122;2022-12-18T00:05:07;21.23;;;6.65;;
75454;SDS011;64035;48.358;2.122;2022-12-18T00:06:08;20.90;;;6.75;;
75454;SDS011;64035;48.358;2.122;2022-12-18T00:07:09;19.75;;;6.97;;
75454;SDS011;64035;48.358;2.122;2022-12-18T00:08:09;21.70;;;6.97;;
75454;SDS011;64035;48.358;2.122;2022-12-18T00:09:10;21.65;;;6.30;;
75454;SDS011;64035;48.358;2.122;2022-12-18T00:10:11;23.30;;;7.22;;
75454;SDS011;64035;48.358;2.122;2022-12-18T00:11:12;21.88;;;7.93;;
75454;SDS011;64035;48.358;2.122;2022-12-18T00:12:14;20.55;;;7.43;;
75454;SDS011;64035;48.358;2.122;2022-12-18T00:13:15;18.48;;;6.07;;
75454;SDS011;64035;48.358;2.122;2022-12-18T00:14:15;20.33;;;6.55;;
75454;SDS011;64035;48.358;2.122;2022-12-18T00:15:16;20.85;;;6.90;;
75454;SDS011;64035;48.358;2.122;2022-12-18T00:16:18;20.05;;;6.68;;
75454;SDS011;64035;48.358;2.122;2022-12-18T00:18:21;15.88;;;5.45;;
75454;SDS011;64035;48.358;2.122;2022-12-18T00:19:21;21.58;;;6.72;;
75454;SDS011;64035;48.358;2.122;2022-12-18T00:20:22;21.73;;;6.65;;
75454;SDS011;64035;48.358;2.122;2022-12-18T00:21:26;18.25;;;6.13;;
75454;SDS011;64035;48.358;2.122;2022-12-18T00:22:28;21.00;;;6.60;;
75454;SDS011;64035;48.358;2.122;2022-12-18T00:23:29;19.25;;;6.55;;
75454;SDS011;64035;48.358;2.122;2022-12-18T00:24:30;21.30;;;6.75;;
75454;SDS011;64035;48.358;2.122;2022-12-18T00:25:34;18.52;;;6.90;;
75454;SDS011;64035;48.358;2.122;2022-12-18T00:26:36;19.13;;;7.47;;
75454;SDS011;64035;48.358;2.122;2022-12-18T00:27:37;22.10;;;6.88;;
75454;SDS011;64035;48.358;2.122;2022-12-18T00:28:38;17.77;;;6.68;;
75454;SDS011;64035;48.358;2.122;2022-12-18T00:29:38;16.45;;;6.03;;
75454;SDS011;64035;48.358;2.122;2022-12-18T00:30:39;22.85;;;7.20;;
75454;SDS011;64035;48.358;2.122;2022-12-18T00:31:42;18.42;;;7.85;;
75454;SDS011;64035;48.358;2.122;2022-12-18T00:32:43;21.15;;;7.32;;
75454;SDS011;64035;48.358;2.122;2022-12-18T00:33:43;18.42;;;6.05;;
75454;SDS011;64035;48.358;2.122;2022-12-18T00:34:44;22.55;;;7.38;;
75454;SDS011;64035;48.358;2.122;2022-12-18T00:35:44;18.05;;;7.32;;
75454;SDS011;64035;48.358;2.122;2022-12-18T00:36:46;20.83;;;6.50;;
75454;SDS011;64035;48.358;2.122;2022-12-18T00:37:48;22.63;;;7.70;;
75454;SDS011;64035;48.358;2.122;2022-12-18T00:38:48;18.20;;;6.57;;
75454;SDS011;64035;48.358;2.122;2022-12-18T00:39:51;19.00;;;6.93;;
75454;SDS011;64035;48.358;2.122;2022-12-18T00:40:53;18.92;;;6.10;;
75454;SDS011;64035;48.358;2.122;2022-12-18T00:41:55;18.67;;;6.63;;
75454;SDS011;64035;48.358;2.122;2022-12-18T00:43:14;20.08;;;6.30;;
75454;SDS011;64035;48.358;2.122;2022-12-18T00:44:16;19.40;;;6.40;;
75454;SDS011;64035;48.358;2.122;2022-12-18T00:46:20;18.15;;;6.47;;
75454;SDS011;64035;48.358;2.122;2022-12-18T00:47:22;21.15;;;6.00;;
75454;SDS011;64035;48.358;2.122;2022-12-18T00:48:22;18.13;;;6.22;;
75454;SDS011;64035;48.358;2.122;2022-12-18T00:49:23;20.00;;;7.65;;
75454;SDS011;64035;48.358;2.122;2022-12-18T00:50:24;20.75;;;6.15;;
75454;SDS011;64035;48.358;2.122;2022-12-18T00:51:25;19.35;;;5.68;;
75454;SDS011;64035;48.358;2.122;2022-12-18T00:52:26;19.90;;;6.60;;
75454;SDS011;64035;48.358;2.122;2022-12-18T00:53:27;19.08;;;6.05;;
75454;SDS011;64035;48.358;2.122;2022-12-18T00:54:27;21.83;;;6.95;;
75454;SDS011;64035;48.358;2.122;2022-12-18T00:55:28;19.65;;;6.25;;
75454;SDS011;64035;48.358;2.122;2022-12-18T00:56:28;22.45;;;6.85;;
75454;SDS011;64035;48.358;2.122;2022-12-18T00:57:29;19.80;;;6.93;;
75454;SDS011;64035;48.358;2.122;2022-12-18T00:58:29;22.50;;;7.22;;
75454;SDS011;64035;48.358;2.122;2022-12-18T00:59:29;16.83;;;5.80;;
75454;SDS011;64035;48.358;2.122;2022-12-18T01:00:30;18.70;;;6.50;;
75454;SDS011;64035;48.358;2.122;2022-12-18T01:01:31;21.23;;;6.95;;
75454;SDS011;64035;48.358;2.122;2022-12-18T01:02:32;18.70;;;6.22;;
75454;SDS011;64035;48.358;2.122;2022-12-18T01:03:33;18.85;;;6.13;;
75454;SDS011;64035;48.358;2.122;2022-12-18T01:04:33;21.42;;;7.18;;
75454;SDS011;64035;48.358;2.122;2022-12-18T01:05:34;19.23;;;6.55;;
75454;SDS011;64035;48.358;2.122;2022-12-18T01:06:38;19.13;;;7.13;;
75454;SDS011;64035;48.358;2.122;2022-12-18T01:07:39;22.75;;;7.75;;
75454;SDS011;64035;48.358;2.122;2022-12-18T01:08:40;19.48;;;6.45;;
75454;SDS011;64035;48.358;2.122;2022-12-18T01:09:41;18.27;;;6.22;;
75454;SDS011;64035;48.358;2.122;2022-12-18T01:10:41;19.48;;;6.85;;
75454;SDS011;64035;48.358;2.122;2022-12-18T01:11:42;17.42;;;6.10;;
75454;SDS011;64035;48.358;2.122;2022-12-18T01:12:44;20.27;;;6.80;;
75454;SDS011;64035;48.358;2.122;2022-12-18T01:13:45;20.98;;;6.90;;
75454;SDS011;64035;48.358;2.122;2022-12-18T01:14:46;19.30;;;6.50;;
75454;SDS011;64035;48.358;2.122;2022-12-18T01:15:48;20.98;;;6.80;;
75454;SDS011;64035;48.358;2.122;2022-12-18T01:16:50;18.60;;;6.88;;
75454;SDS011;64035;48.358;2.122;2022-12-18T01:17:52;18.13;;;7.20;;
75454;SDS011;64035;48.358;2.122;2022-12-18T01:18:53;15.90;;;6.53;;
75454;SDS011;64035;48.358;2.122;2022-12-18T01:19:54;22.08;;;7.30;;
75454;SDS011;64035;48.358;2.122;2022-12-18T01:20:55;18.83;;;6.55;;
75454;SDS011;64035;48.358;2.122;2022-12-18T01:21:55;16.40;;;6.25;;
75454;SDS011;64035;48.358;2.122;2022-12-18T01:22:56;21.42;;;7.35;;
75454;SDS011;64035;48.358;2.122;2022-12-18T01:23:57;19.55;;;6.38;;
75454;SDS011;64035;48.358;2.122;2022-12-18T01:24:57;16.73;;;6.28;;
75454;SDS011;64035;48.358;2.122;2022-12-18T01:25:58;19.58;;;6.95;;
75454;SDS011;64035;48.358;2.122;2022-12-18T01:27:03;18.67;;;5.97;;
75454;SDS011;64035;48.358;2.122;2022-12-18T01:28:04;18.63;;;6.97;;
75454;SDS011;64035;48.358;2.122;2022-12-18T01:29:06;20.30;;;6.45;;
75454;SDS011;64035;48.358;2.122;2022-12-18T01:30:06;17.35;;;5.75;;
75454;SDS011;64035;48.358;2.122;2022-12-18T01:31:15;21.48;;;7.40;;
75454;SDS011;64035;48.358;2.122;2022-12-18T01:32:21;15.15;;;6.20;;
75454;SDS011;64035;48.358;2.122;2022-12-18T01:33:23;20.85;;;7.10;;
75454;SDS011;64035;48.358;2.122;2022-12-18T01:34:23;19.83;;;7.05;;
75454;SDS011;64035;48.358;2.122;2022-12-18T01:35:24;20.45;;;7.07;;
75454;SDS011;64035;48.358;2.122;2022-12-18T01:36:30;18.83;;;6.80;;
75454;SDS011;64035;48.358;2.122;2022-12-18T01:37:32;22.45;;;6.65;;
75454;SDS011;64035;48.358;2.122;2022-12-18T01:38:33;19.33;;;6.75;;
75454;SDS011;64035;48.358;2.122;2022-12-18T01:39:34;19.80;;;7.07;;
75454;SDS011;64035;48.358;2.122;2022-12-18T01:40:34;20.70;;;6.68;;
75454;SDS011;64035;48.358;2.122;2022-12-18T01:41:35;22.15;;;7.30;;
75454;SDS011;64035;48.358;2.122;2022-12-18T01:42:54;20.52;;;6.60;;
75454;SDS011;64035;48.358;2.122;2022-12-18T01:43:56;19.80;;;6.10;;
75454;SDS011;64035;48.358;2.122;2022-12-18T01:45:05;18.20;;;6.50;;
75454;SDS011;64035;48.358;2.122;2022-12-18T01:46:12;18.77;;;6.22;;
75454;SDS011;64035;48.358;2.122;2022-12-18T01:47:15;20.63;;;6.43;;
75454;SDS011;64035;48.358;2.122;2022-12-18T01:48:18;19.90;;;7.15;;
75454;SDS011;64035;48.358;2.122;2022-12-18T01:49:19;23.17;;;6.90;;
75454;SDS011;64035;48.358;2.122;2022-12-18T01:51:23;18.92;;;7.15;;
75454;SDS011;64035;48.358;2.122;2022-12-18T01:52:26;17.23;;;6.47;;
75454;SDS011;64035;48.358;2.122;2022-12-18T01:53:30;16.67;;;6.20;;
75454;SDS011;64035;48.358;2.122;2022-12-18T01:54:31;18.02;;;6.03;;
75454;SDS011;64035;48.358;2.122;2022-12-18T01:55:35;16.92;;;6.75;;
75454;SDS011;64035;48.358;2.122;2022-12-18T01:56:40;17.65;;;6.60;;
75454;SDS011;64035;48.358;2.122;2022-12-18T01:57:40;16.70;;;6.18;;
75454;SDS011;64035;48.358;2.122;2022-12-18T02:00:04;17.52;;;6.15;;
75454;SDS011;64035;48.358;2.122;2022-12-18T02:01:14;21.08;;;6.15;;
75454;SDS011;64035;48.358;2.122;2022-12-18T02:02:15;19.35;;;7.40;;
75454;SDS011;64035;48.358;2.122;2022-12-18T02:03:17;15.90;;;6.10;;
75454;SDS011;64035;48.358;2.122;2022-12-18T02:04:20;17.70;;;6.78;;
75454;SDS011;64035;48.358;2.122;2022-12-18T02:06:37;15.57;;;5.45;;
75454;SDS011;64035;48.358;2.122;2022-12-18T02:08:03;17.08;;;5.53;;
75454;SDS011;64035;48.358;2.122;2022-12-18T02:09:14;17.60;;;6.07;;
75454;SDS011;64035;48.358;2.122;2022-12-18T02:10:24;18.67;;;5.72;;
75454;SDS011;64035;48.358;2.122;2022-12-18T02:11:49;18.48;;;6.25;;
75454;SDS011;64035;48.358;2.122;2022-12-18T02:13:06;14.77;;;4.97;;
75454;SDS011;64035;48.358;2.122;2022-12-18T02:14:20;17.35;;;5.97;;
75454;SDS011;64035;48.358;2.122;2022-12-18T02:16:58;16.80;;;6.10;;
75454;SDS011;64035;48.358;2.122;2022-12-18T02:18:08;17.23;;;5.70;;
75454;SDS011;64035;48.358;2.122;2022-12-18T02:19:20;19.13;;;6.45;;
75454;SDS011;64035;48.358;2.122;2022-12-18T02:24:18;15.65;;;5.78;;
75454;SDS011;64035;48.358;2.122;2022-12-18T02:26:57;15.98;;;5.80;;
75454;SDS011;64035;48.358;2.122;2022-12-18T02:28:04;19.60;;;5.50;;
75454;SDS011;64035;48.358;2.122;2022-12-18T02:29:12;16.23;;;5.15;;
75454;SDS011;64035;48.358;2.122;2022-12-18T02:30:16;17.23;;;6.28;;
75454;SDS011;64035;48.358;2.122;2022-12-18T02:31:19;18.38;;;6.55;;
75454;SDS011;64035;48.358;2.122;2022-12-18T02:32:28;22.70;;;6.25;;
75454;SDS011;64035;48.358;2.122;2022-12-18T02:33:33;19.45;;;5.93;;
75454;SDS011;64035;48.358;2.122;2022-12-18T02:34:37;20.67;;;6.50;;
75454;SDS011;64035;48.358;2.122;2022-12-18T02:35:41;17.80;;;6.13;;
75454;SDS011;64035;48.358;2.122;2022-12-18T02:36:44;18.40;;;6.03;;
75454;SDS011;64035;48.358;2.122;2022-12-18T02:37:47;18.58;;;6.93;;
75454;SDS011;64035;48.358;2.122;2022-12-18T02:38:48;19.23;;;6.25;;
75454;SDS011;64035;48.358;2.122;2022-12-18T02:39:52;19.30;;;6.50;;
75454;SDS011;64035;48.358;2.122;2022-12-18T02:40:54;19.45;;;6.47;;
75454;SDS011;64035;48.358;2.122;2022-12-18T02:41:57;20.90;;;6.55;;
75454;SDS011;64035;48.358;2.122;2022-12-18T02:43:17;22.27;;;6.60;;
75454;SDS011;64035;48.358;2.122;2022-12-18T02:44:18;20.88;;;6.82;;
75454;SDS011;64035;48.358;2.122;2022-12-18T02:45:19;18.63;;;6.20;;
75454;SDS011;64035;48.358;2.122;2022-12-18T02:46:25;18.27;;;6.05;;
75454;SDS011;64035;48.358;2.122;2022-12-18T02:47:32;19.40;;;6.40;;
75454;SDS011;64035;48.358;2.122;2022-12-18T02:48:37;17.17;;;6.25;;
75454;SDS011;64035;48.358;2.122;2022-12-18T02:51:06;21.98;;;6.30;;
75454;SDS011;64035;48.358;2.122;2022-12-18T02:53:49;16.92;;;5.65;;
75454;SDS011;64035;48.358;2.122;2022-12-18T02:55:13;17.77;;;6.28;;
75454;SDS011;64035;48.358;2.122;2022-12-18T02:56:34;17.92;;;6.03;;
75454;SDS011;64035;48.358;2.122;2022-12-18T02:58:58;18.08;;;5.68;;
75454;SDS011;64035;48.358;2.122;2022-12-18T03:00:14;15.40;;;5.47;;
75454;SDS011;64035;48.358;2.122;2022-12-18T03:01:40;16.15;;;5.47;;
75454;SDS011;64035;48.358;2.122;2022-12-18T03:04:14;19.10;;;5.18;;
75454;SDS011;64035;48.358;2.122;2022-12-18T03:05:29;15.57;;;6.70;;
75454;SDS011;64035;48.358;2.122;2022-12-18T03:06:37;16.63;;;5.45;;
75454;SDS011;64035;48.358;2.122;2022-12-18T03:07:45;20.63;;;6.15;;
75454;SDS011;64035;48.358;2.122;2022-12-18T03:08:56;14.98;;;5.22;;
75454;SDS011;64035;48.358;2.122;2022-12-18T03:10:01;16.48;;;6.28;;
75454;SDS011;64035;48.358;2.122;2022-12-18T03:11:03;16.52;;;5.93;;
75454;SDS011;64035;48.358;2.122;2022-12-18T03:12:10;17.83;;;6.13;;
75454;SDS011;64035;48.358;2.122;2022-12-18T03:13:46;16.10;;;6.50;;
75454;SDS011;64035;48.358;2.122;2022-12-18T03:16:03;17.00;;;5.93;;
75454;SDS011;64035;48.358;2.122;2022-12-18T03:17:09;14.93;;;5.78;;
75454;SDS011;64035;48.358;2.122;2022-12-18T03:18:17;17.60;;;6.35;;
75454;SDS011;64035;48.358;2.122;2022-12-18T03:19:22;14.65;;;5.65;;
75454;SDS011;64035;48.358;2.122;2022-12-18T03:20:31;18.33;;;5.32;;
75454;SDS011;64035;48.358;2.122;2022-12-18T03:21:37;15.23;;;5.70;;
75454;SDS011;64035;48.358;2.122;2022-12-18T03:22:42;17.33;;;6.20;;
75454;SDS011;64035;48.358;2.122;2022-12-18T03:23:48;19.90;;;5.82;;
75454;SDS011;64035;48.358;2.122;2022-12-18T03:24:53;16.95;;;6.10;;
75454;SDS011;64035;48.358;2.122;2022-12-18T03:25:57;16.00;;;5.38;;
75454;SDS011;64035;48.358;2.122;2022-12-18T03:27:01;18.33;;;5.50;;
75454;SDS011;64035;48.358;2.122;2022-12-18T03:28:05;19.00;;;5.65;;
75454;SDS011;64035;48.358;2.122;2022-12-18T03:29:12;14.90;;;5.90;;
75454;SDS011;64035;48.358;2.122;2022-12-18T03:30:19;15.80;;;5.72;;
75454;SDS011;64035;48.358;2.122;2022-12-18T03:31:20;17.52;;;6.47;;
75454;SDS011;64035;48.358;2.122;2022-12-18T03:32:26;17.48;;;5.78;;
75454;SDS011;64035;48.358;2.122;2022-12-18T03:33:42;14.15;;;5.13;;
75454;SDS011;64035;48.358;2.122;2022-12-18T03:34:48;16.35;;;5.18;;
75454;SDS011;64035;48.358;2.122;2022-12-18T03:35:55;18.60;;;5.95;;
75454;SDS011;64035;48.358;2.122;2022-12-18T03:36:56;15.73;;;5.57;;
75454;SDS011;64035;48.358;2.122;2022-12-18T03:37:58;17.48;;;5.70;;
75454;SDS011;64035;48.358;2.122;2022-12-18T03:38:59;15.18;;;4.63;;
75454;SDS011;64035;48.358;2.122;2022-12-18T03:40:01;18.08;;;6.28;;
75454;SDS011;64035;48.358;2.122;2022-12-18T03:42:28;16.40;;;5.50;;
75454;SDS011;64035;48.358;2.122;2022-12-18T03:43:49;14.00;;;5.40;;
75454;SDS011;64035;48.358;2.122;2022-12-18T03:44:57;16.10;;;5.40;;
75454;SDS011;64035;48.358;2.122;2022-12-18T03:46:15;15.50;;;5.22;;
75454;SDS011;64035;48.358;2.122;2022-12-18T03:47:28;15.32;;;4.75;;
75454;SDS011;64035;48.358;2.122;2022-12-18T03:48:38;14.35;;;5.15;;
75454;SDS011;64035;48.358;2.122;2022-12-18T03:49:57;18.15;;;5.60;;
75454;SDS011;64035;48.358;2.122;2022-12-18T03:51:11;14.32;;;5.10;;
75454;SDS011;64035;48.358;2.122;2022-12-18T03:52:38;15.70;;;4.93;;
75454;SDS011;64035;48.358;2.122;2022-12-18T03:53:49;15.57;;;4.35;;
75454;SDS011;64035;48.358;2.122;2022-12-18T03:55:00;14.15;;;4.63;;
75454;SDS011;64035;48.358;2.122;2022-12-18T03:56:04;13.40;;;4.72;;
75454;SDS011;64035;48.358;2.122;2022-12-18T03:57:12;19.77;;;5.68;;
75454;SDS011;64035;48.358;2.122;2022-12-18T03:58:17;16.27;;;5.63;;
75454;SDS011;64035;48.358;2.122;2022-12-18T03:59:32;16.80;;;5.22;;
75454;SDS011;64035;48.358;2.122;2022-12-18T04:00:34;15.95;;;5.95;;
75454;SDS011;64035;48.358;2.122;2022-12-18T04:01:42;13.80;;;4.97;;
75454;SDS011;64035;48.358;2.122;2022-12-18T04:02:52;16.08;;;4.85;;
75454;SDS011;64035;48.358;2.122;2022-12-18T04:04:00;15.88;;;5.28;;
75454;SDS011;64035;48.358;2.122;2022-12-18T04:05:05;16.27;;;5.38;;
75454;SDS011;64035;48.358;2.122;2022-12-18T04:06:10;13.73;;;4.72;;
75454;SDS011;64035;48.358;2.122;2022-12-18T04:07:14;13.38;;;5.60;;
75454;SDS011;64035;48.358;2.122;2022-12-18T04:08:18;15.63;;;5.15;;
75454;SDS011;64035;48.358;2.122;2022-12-18T04:09:27;18.02;;;5.57;;
75454;SDS011;64035;48.358;2.122;2022-12-18T04:10:28;14.18;;;5.32;;
75454;SDS011;64035;48.358;2.122;2022-12-18T04:11:30;14.90;;;4.97;;
75454;SDS011;64035;48.358;2.122;2022-12-18T04:12:31;16.85;;;5.97;;
75454;SDS011;64035;48.358;2.122;2022-12-18T04:13:33;16.27;;;5.57;;
75454;SDS011;64035;48.358;2.122;2022-12-18T04:14:39;18.63;;;6.03;;
75454;SDS011;64035;48.358;2.122;2022-12-18T04:15:42;11.77;;;4.18;;
75454;SDS011;64035;48.358;2.122;2022-12-18T04:16:46;17.42;;;5.43;;
75454;SDS011;64035;48.358;2.122;2022-12-18T04:17:50;13.43;;;5.35;;
75454;SDS011;64035;48.358;2.122;2022-12-18T04:18:54;19.05;;;6.43;;
75454;SDS011;64035;48.358;2.122;2022-12-18T04:19:56;12.35;;;4.50;;
75454;SDS011;64035;48.358;2.122;2022-12-18T04:20:58;17.27;;;5.50;;
75454;SDS011;64035;48.358;2.122;2022-12-18T04:21:58;15.40;;;4.82;;
75454;SDS011;64035;48.358;2.122;2022-12-18T04:23:00;14.98;;;4.57;;
75454;SDS011;64035;48.358;2.122;2022-12-18T04:24:01;18.27;;;5.57;;
75454;SDS011;64035;48.358;2.122;2022-12-18T04:25:03;12.82;;;4.60;;
75454;SDS011;64035;48.358;2.122;2022-12-18T04:26:11;13.20;;;4.70;;
75454;SDS011;64035;48.358;2.122;2022-12-18T04:27:24;14.13;;;5.00;;
75454;SDS011;64035;48.358;2.122;2022-12-18T04:28:25;16.98;;;5.60;;
75454;SDS011;64035;48.358;2.122;2022-12-18T04:29:25;16.90;;;4.93;;
75454;SDS011;64035;48.358;2.122;2022-12-18T04:30:26;12.93;;;5.07;;
75454;SDS011;64035;48.358;2.122;2022-12-18T04:31:27;12.50;;;4.85;;
75454;SDS011;64035;48.358;2.122;2022-12-18T04:32:27;13.55;;;4.95;;
75454;SDS011;64035;48.358;2.122;2022-12-18T04:33:28;16.10;;;5.18;;
75454;SDS011;64035;48.358;2.122;2022-12-18T04:34:28;14.73;;;4.78;;
75454;SDS011;64035;48.358;2.122;2022-12-18T04:35:29;19.50;;;5.68;;
75454;SDS011;64035;48.358;2.122;2022-12-18T04:36:30;14.20;;;5.15;;
75454;SDS011;64035;48.358;2.122;2022-12-18T04:37:31;16.60;;;5.32;;
75454;SDS011;64035;48.358;2.122;2022-12-18T04:38:31;15.60;;;5.03;;
75454;SDS011;64035;48.358;2.122;2022-12-18T04:39:38;18.15;;;5.30;;
75454;SDS011;64035;48.358;2.122;2022-12-18T04:40:44;16.45;;;5.00;;
75454;SDS011;64035;48.358;2.122;2022-12-18T04:41:54;12.20;;;4.32;;
75454;SDS011;64035;48.358;2.122;2022-12-18T04:42:54;16.40;;;4.50;;
75454;SDS011;64035;48.358;2.122;2022-12-18T04:43:55;13.27;;;4.38;;
75454;SDS011;64035;48.358;2.122;2022-12-18T04:44:55;15.90;;;4.90;;
75454;SDS011;64035;48.358;2.122;2022-12-18T04:46:03;15.02;;;5.07;;
75454;SDS011;64035;48.358;2.122;2022-12-18T04:47:06;15.60;;;5.10;;
75454;SDS011;64035;48.358;2.122;2022-12-18T04:48:07;17.20;;;5.13;;
75454;SDS011;64035;48.358;2.122;2022-12-18T04:49:08;12.38;;;4.25;;
75454;SDS011;64035;48.358;2.122;2022-12-18T04:50:10;12.88;;;4.30;;
75454;SDS011;64035;48.358;2.122;2022-12-18T04:51:11;14.20;;;5.18;;
75454;SDS011;64035;48.358;2.122;2022-12-18T04:52:13;15.00;;;5.03;;
75454;SDS011;64035;48.358;2.122;2022-12-18T04:53:13;14.00;;;4.70;;
75454;SDS011;64035;48.358;2.122;2022-12-18T04:54:14;14.25;;;4.82;;
75454;SDS011;64035;48.358;2.122;2022-12-18T04:55:14;17.17;;;5.45;;
75454;SDS011;64035;48.358;2.122;2022-12-18T04:56:15;16.83;;;5.35;;
75454;SDS011;64035;48.358;2.122;2022-12-18T04:57:16;15.23;;;4.97;;
75454;SDS011;64035;48.358;2.122;2022-12-18T04:58:18;17.70;;;5.47;;
75454;SDS011;64035;48.358;2.122;2022-12-18T04:59:18;16.75;;;5.25;;
75454;SDS011;64035;48.358;2.122;2022-12-18T05:00:19;15.55;;;5.63;;
75454;SDS011;64035;48.358;2.122;2022-12-18T05:01:20;15.25;;;5.30;;
75454;SDS011;64035;48.358;2.122;2022-12-18T05:02:20;13.60;;;4.85;;
75454;SDS011;64035;48.358;2.122;2022-12-18T05:03:21;19.02;;;5.60;;
75454;SDS011;64035;48.358;2.122;2022-12-18T05:04:21;15.65;;;5.13;;
75454;SDS011;64035;48.358;2.122;2022-12-18T05:05:22;15.57;;;5.00;;
75454;SDS011;64035;48.358;2.122;2022-12-18T05:06:22;16.00;;;5.50;;
75454;SDS011;64035;48.358;2.122;2022-12-18T05:07:22;14.82;;;5.10;;
75454;SDS011;64035;48.358;2.122;2022-12-18T05:08:23;16.02;;;5.10;;
75454;SDS011;64035;48.358;2.122;2022-12-18T05:09:24;13.50;;;4.68;;
75454;SDS011;64035;48.358;2.122;2022-12-18T05:10:24;17.50;;;5.50;;
75454;SDS011;64035;48.358;2.122;2022-12-18T05:11:25;17.05;;;5.57;;
75454;SDS011;64035;48.358;2.122;2022-12-18T05:12:25;16.63;;;5.93;;
75454;SDS011;64035;48.358;2.122;2022-12-18T05:13:26;16.92;;;5.72;;
75454;SDS011;64035;48.358;2.122;2022-12-18T05:14:28;15.00;;;5.13;;
75454;SDS011;64035;48.358;2.122;2022-12-18T05:15:29;14.05;;;5.28;;
75454;SDS011;64035;48.358;2.122;2022-12-18T05:16:31;17.85;;;7.30;;
75454;SDS011;64035;48.358;2.122;2022-12-18T05:17:31;16.30;;;5.53;;
75454;SDS011;64035;48.358;2.122;2022-12-18T05:18:32;15.95;;;6.00;;
75454;SDS011;64035;48.358;2.122;2022-12-18T05:19:33;16.92;;;5.63;;
75454;SDS011;64035;48.358;2.122;2022-12-18T05:20:33;15.23;;;5.20;;
75454;SDS011;64035;48.358;2.122;2022-12-18T05:21:34;15.77;;;5.15;;
75454;SDS011;64035;48.358;2.122;2022-12-18T05:22:34;16.60;;;5.45;;
75454;SDS011;64035;48.358;2.122;2022-12-18T05:23:35;13.60;;;4.57;;
75454;SDS011;64035;48.358;2.122;2022-12-18T05:24:36;15.25;;;5.30;;
75454;SDS011;64035;48.358;2.122;2022-12-18T05:25:36;13.32;;;5.18;;
75454;SDS011;64035;48.358;2.122;2022-12-18T05:26:37;15.48;;;4.75;;
75454;SDS011;64035;48.358;2.122;2022-12-18T05:27:37;17.40;;;5.72;;
75454;SDS011;64035;48.358;2.122;2022-12-18T05:28:38;15.73;;;5.35;;
75454;SDS011;64035;48.358;2.122;2022-12-18T05:29:38;16.48;;;5.45;;
75454;SDS011;64035;48.358;2.122;2022-12-18T05:30:39;18.42;;;5.68;;
75454;SDS011;64035;48.358;2.122;2022-12-18T05:31:42;16.52;;;4.95;;
75454;SDS011;64035;48.358;2.122;2022-12-18T05:32:42;16.77;;;4.63;;
75454;SDS011;64035;48.358;2.122;2022-12-18T05:33:43;16.35;;;5.65;;
75454;SDS011;64035;48.358;2.122;2022-12-18T05:34:44;12.65;;;4.40;;
75454;SDS011;64035;48.358;2.122;2022-12-18T05:35:44;13.82;;;5.47;;
75454;SDS011;64035;48.358;2.122;2022-12-18T05:36:53;15.93;;;5.53;;
75454;SDS011;64035;48.358;2.122;2022-12-18T05:37:53;14.77;;;4.82;;
75454;SDS011;64035;48.358;2.122;2022-12-18T05:38:54;17.17;;;4.97;;
75454;SDS011;64035;48.358;2.122;2022-12-18T05:39:54;16.88;;;4.88;;
75454;SDS011;64035;48.358;2.122;2022-12-18T05:40:55;15.77;;;5.03;;
75454;SDS011;64035;48.358;2.122;2022-12-18T05:41:56;17.80;;;5.97;;
75454;SDS011;64035;48.358;2.122;2022-12-18T05:42:56;15.52;;;4.90;;
75454;SDS011;64035;48.358;2.122;2022-12-18T05:43:57;17.75;;;5.10;;
75454;SDS011;64035;48.358;2.122;2022-12-18T05:44:58;12.90;;;4.57;;
75454;SDS011;64035;48.358;2.122;2022-12-18T05:46:02;12.68;;;5.10;;
75454;SDS011;64035;48.358;2.122;2022-12-18T05:47:12;13.10;;;4.60;;
75454;SDS011;64035;48.358;2.122;2022-12-18T05:48:13;17.77;;;5.53;;
75454;SDS011;64035;48.358;2.122;2022-12-18T05:49:14;15.38;;;5.30;;
75454;SDS011;64035;48.358;2.122;2022-12-18T05:50:15;13.60;;;4.82;;
75454;SDS011;64035;48.358;2.122;2022-12-18T05:51:16;10.93;;;4.20;;
75454;SDS011;64035;48.358;2.122;2022-12-18T05:52:18;15.05;;;4.97;;
75454;SDS011;64035;48.358;2.122;2022-12-18T05:53:19;14.70;;;4.70;;
75454;SDS011;64035;48.358;2.122;2022-12-18T05:54:20;13.50;;;4.00;;
75454;SDS011;64035;48.358;2.122;2022-12-18T05:55:21;15.90;;;5.85;;
75454;SDS011;64035;48.358;2.122;2022-12-18T05:56:22;13.48;;;4.70;;
75454;SDS011;64035;48.358;2.122;2022-12-18T05:57:23;19.00;;;5.88;;
75454;SDS011;64035;48.358;2.122;2022-12-18T05:58:23;13.45;;;4.85;;
75454;SDS011;64035;48.358;2.122;2022-12-18T05:59:24;17.70;;;5.78;;
75454;SDS011;64035;48.358;2.122;2022-12-18T06:00:24;15.02;;;5.55;;
75454;SDS011;64035;48.358;2.122;2022-12-18T06:01:25;12.32;;;4.45;;
75454;SDS011;64035;48.358;2.122;2022-12-18T06:02:26;14.13;;;5.57;;
75454;SDS011;64035;48.358;2.122;2022-12-18T06:03:26;15.40;;;5.65;;
75454;SDS011;64035;48.358;2.122;2022-12-18T06:04:30;11.68;;;4.72;;
75454;SDS011;64035;48.358;2.122;2022-12-18T06:05:34;16.55;;;5.45;;
75454;SDS011;64035;48.358;2.122;2022-12-18T06:06:38;17.20;;;5.80;;
75454;SDS011;64035;48.358;2.122;2022-12-18T06:07:39;13.77;;;5.35;;
75454;SDS011;64035;48.358;2.122;2022-12-18T06:08:40;14.90;;;5.00;;
75454;SDS011;64035;48.358;2.122;2022-12-18T06:09:41;17.52;;;5.22;;
75454;SDS011;64035;48.358;2.122;2022-12-18T06:10:41;15.10;;;5.75;;
75454;SDS011;64035;48.358;2.122;2022-12-18T06:11:42;17.33;;;6.32;;
75454;SDS011;64035;48.358;2.122;2022-12-18T06:12:42;14.82;;;5.22;;
75454;SDS011;64035;48.358;2.122;2022-12-18T06:13:43;16.75;;;5.35;;
75454;SDS011;64035;48.358;2.122;2022-12-18T06:14:43;14.93;;;5.50;;
75454;SDS011;64035;48.358;2.122;2022-12-18T06:15:43;15.43;;;5.30;;
75454;SDS011;64035;48.358;2.122;2022-12-18T06:16:44;14.05;;;4.43;;
75454;SDS011;64035;48.358;2.122;2022-12-18T06:17:44;12.05;;;4.18;;
75454;SDS011;64035;48.358;2.122;2022-12-18T06:18:45;16.70;;;5.47;;
75454;SDS011;64035;48.358;2.122;2022-12-18T06:19:46;15.15;;;5.50;;
75454;SDS011;64035;48.358;2.122;2022-12-18T06:20:53;15.02;;;5.32;;
75454;SDS011;64035;48.358;2.122;2022-12-18T06:21:57;13.50;;;4.60;;
75454;SDS011;64035;48.358;2.122;2022-12-18T06:22:59;16.95;;;5.53;;
75454;SDS011;64035;48.358;2.122;2022-12-18T06:23:59;14.77;;;3.90;;
75454;SDS011;64035;48.358;2.122;2022-12-18T06:25:00;15.45;;;5.38;;
75454;SDS011;64035;48.358;2.122;2022-12-18T06:26:07;13.70;;;5.18;;
75454;SDS011;64035;48.358;2.122;2022-12-18T06:27:09;16.20;;;5.43;;
75454;SDS011;64035;48.358;2.122;2022-12-18T06:28:10;14.57;;;4.93;;
75454;SDS011;64035;48.358;2.122;2022-12-18T06:29:10;15.05;;;5.07;;
75454;SDS011;64035;48.358;2.122;2022-12-18T06:30:11;17.38;;;5.88;;
75454;SDS011;64035;48.358;2.122;2022-12-18T06:31:12;12.77;;;4.53;;
75454;SDS011;64035;48.358;2.122;2022-12-18T06:32:13;14.02;;;5.22;;
75454;SDS011;64035;48.358;2.122;2022-12-18T06:33:13;17.25;;;5.53;;
75454;SDS011;64035;48.358;2.122;2022-12-18T06:34:15;15.07;;;5.05;;
75454;SDS011;64035;48.358;2.122;2022-12-18T06:35:15;16.88;;;5.90;;
75454;SDS011;64035;48.358;2.122;2022-12-18T06:36:16;15.13;;;4.70;;
75454;SDS011;64035;48.358;2.122;2022-12-18T06:37:16;15.32;;;5.07;;
75454;SDS011;64035;48.358;2.122;2022-12-18T06:38:17;13.35;;;4.45;;